createdAt,value
2023-02-15T00:00:09.100Z,63.12
2023-02-15T00:02:36.104Z,62.84
2023-02-15T00:05:03.188Z,63.06
2023-02-15T00:07:30.336Z,62.80
2023-02-15T00:09:57.318Z,62.83
2023-02-15T00:12:24.372Z,63.00
2023-02-15T00:14:51.300Z,62.91
2023-02-15T00:17:18.373Z,62.94
2023-02-15T00:19:45.413Z,63.04
2023-02-15T00:22:12.955Z,63.02
2023-02-15T00:24:40.054Z,62.70
2023-02-15T00:27:07.040Z,63.20
2023-02-15T00:29:34.089Z,62.92
2023-02-15T00:32:01.123Z,63.01
2023-02-15T00:34:29.635Z,62.91
2023-02-15T00:36:57.807Z,63.11
2023-02-15T00:39:25.319Z,63.01
2023-02-15T00:41:52.234Z,63.32
2023-02-15T00:44:19.327Z,63.49
2023-02-15T00:46:46.459Z,63.28
2023-02-15T00:49:13.638Z,63.46
2023-02-15T00:51:40.757Z,63.54
2023-02-15T00:54:08.480Z,63.62
2023-02-15T00:56:35.507Z,63.74
2023-02-15T00:59:02.845Z,63.62
2023-02-15T01:01:30.120Z,63.34
2023-02-15T01:03:57.322Z,63.67
2023-02-15T01:06:24.413Z,63.56
2023-02-15T01:08:51.342Z,63.63
2023-02-15T01:11:24.988Z,63.60
2023-02-15T01:13:55.969Z,63.67
2023-02-15T01:16:25.813Z,63.61
2023-02-15T01:18:53.354Z,63.68
2023-02-15T01:21:24.192Z,64.02
2023-02-15T01:23:51.229Z,63.98
2023-02-15T01:26:18.808Z,64.04
2023-02-15T01:28:46.342Z,63.81
2023-02-15T01:31:17.040Z,63.73
2023-02-15T01:33:47.652Z,64.06
2023-02-15T01:36:15.557Z,63.89
2023-02-15T01:38:42.704Z,63.72
2023-02-15T01:41:23.873Z,64.15
2023-02-15T01:43:56.040Z,63.88
2023-02-15T01:46:36.756Z,64.07
2023-02-15T01:49:14.406Z,63.63
2023-02-15T01:51:44.567Z,63.69
2023-02-15T01:54:32.832Z,63.77
2023-02-15T01:57:06.283Z,63.60
2023-02-15T01:59:36.200Z,63.95
2023-02-15T02:02:04.985Z,63.87
2023-02-15T02:05:03.944Z,63.69
2023-02-15T02:07:35.353Z,63.94
2023-02-15T02:10:04.323Z,64.09
2023-02-15T02:12:34.660Z,64.09
2023-02-15T02:15:02.430Z,63.90
2023-02-15T02:18:11.548Z,63.60
2023-02-15T02:21:27.854Z,63.42
2023-02-15T02:24:25.622Z,63.68
2023-02-15T02:27:34.736Z,63.84
2023-02-15T02:30:37.836Z,63.88
2023-02-15T02:33:29.596Z,64.11
2023-02-15T02:36:33.485Z,64.09
2023-02-15T02:39:28.923Z,63.92
2023-02-15T02:42:16.311Z,64.03
2023-02-15T02:44:55.048Z,63.91
2023-02-15T02:47:39.232Z,63.90
2023-02-15T02:50:10.772Z,63.63
2023-02-15T02:52:45.562Z,63.92
2023-02-15T02:55:49.595Z,63.46
2023-02-15T02:58:37.908Z,63.88
2023-02-15T03:01:21.915Z,63.75
2023-02-15T03:03:54.247Z,63.71
2023-02-15T03:06:32.242Z,63.61
2023-02-15T03:09:15.389Z,63.56
2023-02-15T03:11:45.026Z,63.59
2023-02-15T03:14:14.762Z,63.42
2023-02-15T03:16:44.923Z,63.45
2023-02-15T03:19:19.723Z,63.37
2023-02-15T03:21:59.000Z,63.60
2023-02-15T03:24:38.326Z,63.70
2023-02-15T03:27:12.789Z,63.74
2023-02-15T03:29:40.937Z,63.61
2023-02-15T03:32:12.606Z,63.59
2023-02-15T03:34:40.052Z,63.67
2023-02-15T03:37:37.576Z,63.63
2023-02-15T03:40:51.577Z,63.75
2023-02-15T03:43:25.060Z,64.21
2023-02-15T03:46:00.251Z,64.11
2023-02-15T03:48:38.440Z,64.35
2023-02-15T03:51:32.331Z,64.00
2023-02-15T03:54:04.844Z,64.15
2023-02-15T03:56:34.542Z,64.22
2023-02-15T03:59:20.359Z,64.50
2023-02-15T04:02:02.521Z,64.18
2023-02-15T04:04:44.105Z,64.68
2023-02-15T04:07:11.167Z,64.57
2023-02-15T04:09:56.477Z,64.44
2023-02-15T04:12:23.942Z,65.00
2023-02-15T04:15:09.314Z,64.89
2023-02-15T04:17:38.577Z,65.15
2023-02-15T04:20:25.193Z,64.79
2023-02-15T04:23:10.836Z,65.04
2023-02-15T04:25:38.000Z,65.03
2023-02-15T04:28:05.082Z,64.99
2023-02-15T04:30:32.124Z,64.97
2023-02-15T04:32:59.302Z,64.83
2023-02-15T04:35:26.795Z,64.84
2023-02-15T04:37:53.759Z,64.88
2023-02-15T04:40:20.954Z,65.12
2023-02-15T04:42:51.056Z,64.73
2023-02-15T04:45:18.731Z,64.94
2023-02-15T04:47:46.162Z,64.96
2023-02-15T04:50:13.401Z,64.81
2023-02-15T04:52:40.509Z,64.98
2023-02-15T04:55:08.191Z,65.06
2023-02-15T04:57:35.196Z,65.11
2023-02-15T05:00:02.330Z,65.09
2023-02-15T05:02:29.311Z,64.93
2023-02-15T05:04:56.206Z,65.25
2023-02-15T05:07:23.136Z,65.32
2023-02-15T05:09:50.777Z,65.07
2023-02-15T05:12:17.697Z,65.36
2023-02-15T05:14:44.718Z,65.32
2023-02-15T05:17:11.711Z,65.27
2023-02-15T05:19:38.736Z,65.10
2023-02-15T05:22:05.799Z,64.95
2023-02-15T05:24:51.050Z,64.89
2023-02-15T05:27:36.758Z,65.18
2023-02-15T05:30:04.510Z,65.26
2023-02-15T05:32:31.690Z,65.49
2023-02-15T05:34:58.865Z,65.51
2023-02-15T05:37:25.726Z,65.29
2023-02-15T05:39:52.761Z,65.28
2023-02-15T05:42:19.670Z,65.15
2023-02-15T05:44:46.729Z,65.28
2023-02-15T05:47:13.704Z,65.37
2023-02-15T05:49:40.914Z,65.29
2023-02-15T05:52:09.126Z,65.38
2023-02-15T05:54:36.135Z,65.62
2023-02-15T05:57:03.336Z,65.15
2023-02-15T05:59:30.461Z,65.49
2023-02-15T06:01:57.474Z,65.50
2023-02-15T06:04:24.488Z,65.15
2023-02-15T06:06:52.031Z,65.09
2023-02-15T06:09:19.345Z,64.89
2023-02-15T06:11:47.519Z,65.40
2023-02-15T06:14:14.618Z,65.11
2023-02-15T06:16:41.658Z,65.13
2023-02-15T06:19:08.693Z,65.52
2023-02-15T06:21:35.907Z,65.55
2023-02-15T06:24:03.001Z,65.40
2023-02-15T06:26:30.065Z,65.57
2023-02-15T06:28:57.187Z,65.31
2023-02-15T06:31:24.318Z,65.24
2023-02-15T06:33:51.396Z,65.56
2023-02-15T06:36:18.421Z,65.25
2023-02-15T06:38:45.472Z,65.62
2023-02-15T06:41:12.607Z,65.45
2023-02-15T06:43:41.036Z,65.36
2023-02-15T06:46:08.615Z,65.56
2023-02-15T06:48:35.779Z,65.54
2023-02-15T06:51:02.956Z,65.49
2023-02-15T06:53:30.076Z,65.63
2023-02-15T06:56:09.996Z,65.24
2023-02-15T06:58:38.955Z,65.55
2023-02-15T07:01:06.714Z,65.52
2023-02-15T07:03:34.369Z,65.50
2023-02-15T07:06:06.874Z,65.57
2023-02-15T07:08:33.960Z,65.97
2023-02-15T07:11:21.388Z,65.97
2023-02-15T07:13:48.670Z,65.62
2023-02-15T07:16:15.857Z,65.66
2023-02-15T07:18:43.090Z,65.06
2023-02-15T07:21:10.192Z,65.05
2023-02-15T07:23:39.436Z,65.16
2023-02-15T07:26:07.717Z,65.16
2023-02-15T07:28:35.828Z,65.24
2023-02-15T07:31:06.772Z,65.24
2023-02-15T07:33:35.214Z,65.68
2023-02-15T07:36:04.862Z,65.76
2023-02-15T07:38:37.537Z,65.55
2023-02-15T07:41:09.135Z,65.65
2023-02-15T07:43:39.355Z,65.59
2023-02-15T07:46:13.522Z,65.38
2023-02-15T07:48:44.150Z,65.48
2023-02-15T07:51:12.537Z,65.27
2023-02-15T07:53:40.399Z,65.37
2023-02-15T07:56:12.492Z,65.21
2023-02-15T07:58:51.743Z,65.22
2023-02-15T08:01:34.654Z,65.18
2023-02-15T08:04:02.143Z,65.18
2023-02-15T08:06:32.515Z,64.81
2023-02-15T08:08:59.821Z,64.79
2023-02-15T08:11:33.663Z,64.56
2023-02-15T08:14:07.797Z,64.57
2023-02-15T08:16:46.989Z,64.66
2023-02-15T08:19:23.640Z,64.54
2023-02-15T08:21:57.959Z,64.13
2023-02-15T08:24:29.675Z,63.71
2023-02-15T08:26:57.506Z,63.61
2023-02-15T08:29:28.305Z,63.66
2023-02-15T08:32:03.717Z,63.96
2023-02-15T08:34:34.802Z,64.17
2023-02-15T08:37:01.934Z,63.99
2023-02-15T08:39:29.686Z,63.55
2023-02-15T08:41:56.823Z,63.55
2023-02-15T08:44:23.987Z,63.56
2023-02-15T08:46:51.431Z,63.38
2023-02-15T08:49:21.954Z,63.23
2023-02-15T08:51:50.560Z,63.61
2023-02-15T08:54:21.549Z,63.21
2023-02-15T08:56:49.095Z,63.23
2023-02-15T08:59:20.794Z,62.91
2023-02-15T09:01:50.232Z,62.62
2023-02-15T09:04:17.736Z,62.86
2023-02-15T09:06:48.513Z,62.18
2023-02-15T09:09:18.510Z,62.16
2023-02-15T09:11:48.873Z,61.77
2023-02-15T09:14:20.984Z,62.11
2023-02-15T09:16:50.072Z,62.17
2023-02-15T09:19:18.931Z,61.56
2023-02-15T09:21:46.305Z,61.39
2023-02-15T09:24:16.002Z,61.56
2023-02-15T09:26:46.289Z,61.54
2023-02-15T09:29:15.624Z,60.69
2023-02-15T09:31:49.953Z,61.06
2023-02-15T09:34:20.511Z,61.12
2023-02-15T09:36:48.920Z,61.22
2023-02-15T09:39:24.802Z,60.58
2023-02-15T09:42:41.995Z,60.64
2023-02-15T09:45:40.560Z,60.28
2023-02-15T09:48:47.310Z,61.02
2023-02-15T09:52:16.277Z,60.80
2023-02-15T09:55:06.062Z,60.59
2023-02-15T09:57:54.669Z,60.28
2023-02-15T10:01:11.137Z,59.63
2023-02-15T10:03:51.751Z,60.15
2023-02-15T10:06:50.513Z,59.97
2023-02-15T10:09:47.743Z,60.30
2023-02-15T10:12:31.095Z,60.60
2023-02-15T10:15:12.532Z,60.85
2023-02-15T10:18:05.357Z,60.45
2023-02-15T10:21:00.860Z,60.45
2023-02-15T10:23:56.234Z,59.49
2023-02-15T10:26:45.442Z,59.77
2023-02-15T10:29:37.414Z,59.50
2023-02-15T10:32:24.943Z,58.96
2023-02-15T10:35:20.289Z,58.86
2023-02-15T10:38:04.783Z,59.00
2023-02-15T10:41:03.831Z,59.03
2023-02-15T10:44:21.616Z,58.44
2023-02-15T10:47:25.107Z,58.38
2023-02-15T10:50:35.213Z,58.51
2023-02-15T10:53:29.801Z,58.07
2023-02-15T10:56:21.398Z,57.74
2023-02-15T10:59:20.005Z,57.76
2023-02-15T11:02:18.783Z,57.83
2023-02-15T11:04:51.869Z,57.33
2023-02-15T11:07:34.868Z,56.84
2023-02-15T11:10:39.520Z,56.94
2023-02-15T11:13:12.709Z,56.72
2023-02-15T11:15:55.320Z,56.87
2023-02-15T11:18:28.327Z,56.88
2023-02-15T11:20:59.159Z,56.54
2023-02-15T11:23:27.377Z,56.40
2023-02-15T11:26:20.709Z,56.36
2023-02-15T11:28:56.061Z,56.41
2023-02-15T11:31:26.772Z,55.77
2023-02-15T11:34:05.786Z,55.93
2023-02-15T11:36:41.568Z,55.64
2023-02-15T11:39:19.087Z,55.43
2023-02-15T11:41:52.992Z,55.21
2023-02-15T11:44:48.377Z,55.27
2023-02-15T11:47:15.462Z,55.12
2023-02-15T11:49:42.532Z,55.35
2023-02-15T11:52:15.470Z,54.93
2023-02-15T11:54:46.437Z,54.47
2023-02-15T11:57:25.053Z,54.65
2023-02-15T12:00:01.829Z,55.05
2023-02-15T12:02:38.599Z,54.85
2023-02-15T12:05:14.564Z,55.41
2023-02-15T12:08:05.120Z,55.16
2023-02-15T12:10:48.969Z,55.90
2023-02-15T12:13:20.338Z,55.52
2023-02-15T12:15:51.467Z,55.80
2023-02-15T12:18:31.889Z,56.17
2023-02-15T12:21:04.435Z,57.46
2023-02-15T12:23:34.152Z,58.28
2023-02-15T12:26:01.544Z,57.81
2023-02-15T12:28:38.395Z,58.10
2023-02-15T12:31:38.577Z,55.81
2023-02-15T12:34:14.083Z,54.95
2023-02-15T12:36:51.720Z,52.28
2023-02-15T12:39:36.746Z,49.06
2023-02-15T12:42:17.320Z,48.34
2023-02-15T12:45:00.877Z,46.20
2023-02-15T12:47:31.008Z,45.23
2023-02-15T12:50:23.952Z,42.84
2023-02-15T12:53:08.766Z,41.42
2023-02-15T12:55:36.320Z,39.58
2023-02-15T12:58:26.021Z,38.87
2023-02-15T13:01:22.785Z,36.59
2023-02-15T13:04:03.295Z,35.97
2023-02-15T13:06:36.717Z,35.57
2023-02-15T13:09:15.232Z,35.48
2023-02-15T13:11:44.864Z,32.88
2023-02-15T13:14:30.347Z,33.48
2023-02-15T13:17:01.768Z,32.44
2023-02-15T13:19:46.050Z,31.77
2023-02-15T13:22:18.767Z,30.77
2023-02-15T13:24:54.808Z,30.09
2023-02-15T13:27:25.245Z,30.00
2023-02-15T13:30:00.622Z,30.44
2023-02-15T13:32:39.139Z,30.57
2023-02-15T13:35:09.807Z,29.73
2023-02-15T13:37:51.805Z,29.13
2023-02-15T13:41:05.563Z,29.58
2023-02-15T13:44:13.453Z,29.50
2023-02-15T13:47:01.821Z,28.83
2023-02-15T13:50:00.369Z,28.62
2023-02-15T13:52:30.759Z,28.57
2023-02-15T13:55:09.680Z,28.70
2023-02-15T13:58:08.035Z,28.67
2023-02-15T14:00:40.747Z,28.88
2023-02-15T14:03:22.535Z,28.57
2023-02-15T14:06:04.284Z,28.37
2023-02-15T14:08:44.149Z,28.59
2023-02-15T14:11:27.774Z,27.94
2023-02-15T14:14:03.753Z,27.85
2023-02-15T14:17:20.515Z,28.26
2023-02-15T14:20:21.217Z,28.29
2023-02-15T14:22:56.287Z,28.12
2023-02-15T14:25:50.696Z,28.05
2023-02-15T14:28:42.861Z,28.08
2023-02-15T14:31:13.654Z,28.07
2023-02-15T14:33:50.637Z,28.28
2023-02-15T14:36:20.915Z,27.81
2023-02-15T14:39:32.649Z,27.63
2023-02-15T14:42:16.893Z,27.78
2023-02-15T14:45:20.371Z,28.16
2023-02-15T14:48:06.186Z,28.27
2023-02-15T14:50:38.112Z,28.44
2023-02-15T14:53:33.098Z,28.22
2023-02-15T14:56:08.375Z,28.48
2023-02-15T14:58:35.288Z,28.27
2023-02-15T15:01:08.945Z,28.25
2023-02-15T15:03:36.614Z,28.16
2023-02-15T15:06:06.147Z,28.12
2023-02-15T15:08:41.315Z,27.84
2023-02-15T15:11:52.167Z,28.05
2023-02-15T15:14:34.431Z,28.63
2023-02-15T15:17:04.721Z,28.84
2023-02-15T15:19:54.021Z,29.63
2023-02-15T15:22:29.916Z,30.78
2023-02-15T15:25:00.536Z,31.57
2023-02-15T15:27:46.681Z,31.93
2023-02-15T15:30:19.997Z,32.94
2023-02-15T15:32:55.985Z,33.52
2023-02-15T15:36:06.513Z,34.58
2023-02-15T15:39:03.155Z,35.00
2023-02-15T15:42:02.194Z,35.73
2023-02-15T15:45:15.811Z,36.43
2023-02-15T15:48:01.930Z,36.65
2023-02-15T15:50:33.932Z,37.02
2023-02-15T15:53:03.752Z,37.52
2023-02-15T15:55:33.263Z,37.72
2023-02-15T15:58:07.237Z,37.66
2023-02-15T16:00:44.656Z,38.49
2023-02-15T16:03:24.351Z,38.94
2023-02-15T16:05:55.308Z,39.63
2023-02-15T16:08:34.475Z,39.63
2023-02-15T16:11:15.550Z,40.32
2023-02-15T16:13:44.107Z,40.40
2023-02-15T16:16:14.556Z,40.52
2023-02-15T16:18:43.482Z,40.79
2023-02-15T16:21:23.669Z,42.21
2023-02-15T16:24:19.853Z,41.80
2023-02-15T16:27:28.677Z,42.31
2023-02-15T16:29:55.791Z,42.20
2023-02-15T16:32:26.577Z,43.08
2023-02-15T16:35:03.170Z,43.19
2023-02-15T16:37:35.514Z,43.15
2023-02-15T16:40:03.072Z,43.18
2023-02-15T16:42:30.327Z,43.64
2023-02-15T16:45:10.129Z,43.34
2023-02-15T16:47:44.737Z,43.75
2023-02-15T16:50:22.019Z,44.60
2023-02-15T16:52:49.104Z,44.62
2023-02-15T16:55:25.789Z,44.30
2023-02-15T16:57:59.978Z,44.48
2023-02-15T17:00:35.475Z,45.08
2023-02-15T17:03:07.454Z,45.30
2023-02-15T17:06:01.851Z,45.66
2023-02-15T17:09:06.895Z,45.63
2023-02-15T17:11:43.538Z,45.66
2023-02-15T17:14:10.955Z,45.68
2023-02-15T17:16:50.682Z,45.48
2023-02-15T17:19:54.726Z,45.90
2023-02-15T17:22:26.111Z,46.71
2023-02-15T17:25:01.725Z,47.42
2023-02-15T17:27:32.728Z,47.49
2023-02-15T17:30:13.968Z,46.94
2023-02-15T17:32:59.082Z,47.00
2023-02-15T17:35:28.872Z,47.41
2023-02-15T17:38:20.959Z,47.27
2023-02-15T17:40:48.307Z,47.45
2023-02-15T17:43:15.221Z,48.59
2023-02-15T17:45:49.338Z,50.46
2023-02-15T17:48:32.912Z,48.83
2023-02-15T17:51:03.928Z,48.71
2023-02-15T17:53:31.754Z,49.16
2023-02-15T17:55:59.469Z,48.18
2023-02-15T17:58:26.489Z,48.13
2023-02-15T18:01:16.428Z,48.22
2023-02-15T18:04:09.852Z,48.37
2023-02-15T18:06:58.215Z,48.99
2023-02-15T18:09:44.578Z,49.33
2023-02-15T18:12:21.495Z,48.78
2023-02-15T18:14:50.043Z,48.51
2023-02-15T18:17:18.554Z,49.37
2023-02-15T18:19:46.780Z,50.09
2023-02-15T18:22:18.906Z,50.19
2023-02-15T18:24:47.999Z,50.34
2023-02-15T18:27:16.824Z,50.49
2023-02-15T18:29:43.968Z,50.30
2023-02-15T18:32:19.940Z,50.18
2023-02-15T18:34:48.680Z,51.20
2023-02-15T18:37:19.966Z,51.30
2023-02-15T18:39:49.916Z,51.75
2023-02-15T18:42:35.142Z,51.68
2023-02-15T18:45:33.212Z,52.67
2023-02-15T18:48:00.659Z,53.31
2023-02-15T18:50:32.988Z,54.10
2023-02-15T18:53:00.175Z,54.23
2023-02-15T18:55:28.413Z,54.90
2023-02-15T18:57:57.359Z,55.20
2023-02-15T19:00:34.914Z,55.61
2023-02-15T19:03:02.881Z,54.58
2023-02-15T19:05:31.085Z,53.84
2023-02-15T19:08:00.311Z,53.24
2023-02-15T19:10:30.555Z,53.00
2023-02-15T19:12:58.272Z,52.61
2023-02-15T19:15:30.385Z,52.76
2023-02-15T19:17:57.544Z,52.36
2023-02-15T19:20:41.737Z,52.45
2023-02-15T19:23:22.583Z,52.55
2023-02-15T19:25:51.817Z,52.50
2023-02-15T19:28:32.767Z,52.50
2023-02-15T19:30:59.919Z,52.60
2023-02-15T19:33:27.217Z,52.71
2023-02-15T19:35:57.473Z,52.73
2023-02-15T19:38:30.707Z,54.52
2023-02-15T19:41:06.212Z,55.09
2023-02-15T19:43:35.156Z,53.96
2023-02-15T19:46:02.447Z,53.93
2023-02-15T19:48:29.648Z,54.24
2023-02-15T19:50:57.067Z,55.24
2023-02-15T19:53:27.781Z,54.84
2023-02-15T19:55:55.323Z,54.46
2023-02-15T19:58:22.484Z,54.32
2023-02-15T20:00:51.945Z,54.19
2023-02-15T20:03:19.232Z,54.35
2023-02-15T20:05:46.926Z,53.80
2023-02-15T20:08:22.581Z,53.82
2023-02-15T20:10:50.280Z,54.51
2023-02-15T20:13:19.580Z,54.01
2023-02-15T20:15:47.310Z,54.26
2023-02-15T20:18:14.429Z,54.12
2023-02-15T20:20:49.799Z,54.17
2023-02-15T20:23:24.000Z,54.33
2023-02-15T20:25:51.150Z,54.68
2023-02-15T20:28:22.218Z,54.55
2023-02-15T20:30:50.270Z,54.54
2023-02-15T20:33:19.142Z,54.62
2023-02-15T20:35:50.348Z,55.22
2023-02-15T20:38:20.682Z,56.16
2023-02-15T20:41:06.521Z,55.63
2023-02-15T20:43:34.746Z,55.17
2023-02-15T20:46:03.076Z,55.45
2023-02-15T20:48:30.417Z,56.33
2023-02-15T20:51:00.590Z,56.32
2023-02-15T20:53:29.243Z,56.40
2023-02-15T20:55:56.942Z,56.39
2023-02-15T20:58:28.179Z,56.16
2023-02-15T21:00:58.135Z,56.17
2023-02-15T21:03:30.886Z,55.90
2023-02-15T21:05:59.022Z,56.02
2023-02-15T21:08:26.717Z,56.06
2023-02-15T21:10:54.616Z,55.80
2023-02-15T21:13:30.768Z,55.44
2023-02-15T21:15:59.110Z,57.02
2023-02-15T21:18:33.514Z,56.44
2023-02-15T21:21:05.324Z,56.45
2023-02-15T21:23:39.620Z,56.21
2023-02-15T21:26:14.416Z,58.00
2023-02-15T21:28:41.956Z,59.29
2023-02-15T21:31:22.324Z,58.64
2023-02-15T21:33:49.585Z,58.88
2023-02-15T21:36:23.932Z,58.55
2023-02-15T21:38:53.636Z,58.23
2023-02-15T21:41:42.463Z,58.03
2023-02-15T21:44:41.134Z,57.66
2023-02-15T21:47:42.703Z,57.64
2023-02-15T21:50:36.272Z,59.23
2023-02-15T21:53:05.646Z,61.03
2023-02-15T21:55:33.230Z,59.66
2023-02-15T21:58:01.130Z,59.00
2023-02-15T22:00:28.710Z,58.59
2023-02-15T22:02:58.804Z,58.76
2023-02-15T22:05:31.379Z,60.41
2023-02-15T22:08:00.730Z,60.94
2023-02-15T22:10:31.501Z,61.19
2023-02-15T22:13:01.563Z,62.34
2023-02-15T22:15:35.337Z,61.71
2023-02-15T22:18:03.419Z,61.11
2023-02-15T22:20:30.347Z,60.62
2023-02-15T22:22:57.234Z,60.43
2023-02-15T22:25:26.005Z,60.07
2023-02-15T22:27:54.639Z,59.78
2023-02-15T22:30:32.144Z,59.99
2023-02-15T22:33:00.451Z,59.98
2023-02-15T22:35:30.991Z,60.28
2023-02-15T22:37:58.445Z,60.55
2023-02-15T22:40:32.820Z,60.06
2023-02-15T22:43:05.622Z,60.25
2023-02-15T22:45:36.190Z,60.60
2023-02-15T22:48:03.452Z,60.70
2023-02-15T22:50:33.512Z,61.17
2023-02-15T22:53:02.340Z,61.70
2023-02-15T22:55:36.709Z,62.03
2023-02-15T22:58:04.666Z,62.78
2023-02-15T23:00:40.208Z,62.32
2023-02-15T23:03:26.020Z,61.65
2023-02-15T23:05:53.303Z,61.14
2023-02-15T23:08:20.944Z,61.67
2023-02-15T23:10:55.657Z,61.42
2023-02-15T23:13:29.425Z,61.11
2023-02-15T23:16:02.777Z,61.69
2023-02-15T23:18:42.373Z,60.97
2023-02-15T23:21:31.799Z,60.32
2023-02-15T23:24:22.569Z,59.78
2023-02-15T23:26:50.459Z,60.03
2023-02-15T23:29:23.503Z,59.89
2023-02-15T23:31:53.640Z,59.66
2023-02-15T23:34:30.193Z,59.55
2023-02-15T23:36:57.674Z,59.33
2023-02-15T23:39:46.329Z,59.98
2023-02-15T23:42:15.283Z,59.72
2023-02-15T23:44:44.892Z,59.50
2023-02-15T23:47:46.692Z,59.59
2023-02-15T23:50:19.804Z,59.59
2023-02-15T23:52:47.374Z,59.87
2023-02-15T23:55:15.878Z,60.55
2023-02-15T23:57:43.877Z,60.13
